Historyczne dane pomiarowe

Dodano dane terminowe – wersja testowa.

Dane z okresu 1951-2019

Wersja bazy: 1.34 [2019-03-16, lista zmian], aktualizacja planowana na 2019-04-15

Dane meteo z obszaru Polski uzyskane na podstawie danych udostępnionych przez Instytut Meteorologii i Gospodarki Wodnej – Państwowy Instytut Badawczy.

 

Wybierz Datę:    

       

TemperaturaWilgotnośćWiatrCiśnienieOpadyŚniegCzas trwania zjawisk
 Stacja t tx tn tng RH VA  wxwx mslp ppp RRR   cm mm wxwxwxwxwxwxwx
1987-08-14 14.7 18.6 9.7 7.5 68.0- 4.7 4.3---- 0.0------------
1987-08-13 11.5 16.7 5.3 1.6 78.3- 4.3 1.0---- 0.0------------
1987-08-12 12.7 17.3 7.0 3.1 70.0- 7.3 1.0---- 0.0------------
1987-08-11 13.8 17.9 11.2 6.7 71.3- 6.7 1.3---- 0.0------------
1987-08-10 14.9 17.9 11.8 8.9 76.0- 8.0 2.7---- 16.2------------
1987-08-09 14.5 20.9 6.4 2.0 66.8- 3.0 3.7---- 0.0------------
1987-08-08 13.4 18.3 7.6 4.1 75.3- 4.7 1.0---- 0.0------------
1987-08-07 12.2 16.1 6.5 2.6 67.3- 6.0 4.7---- 0.0------------
1987-08-06 10.2 15.3 8.1 7.8 86.5- 8.0 2.7---- 5.2------------
1987-08-05 13.3 16.2 10.9 9.8 79.3- 8.0 0.3---- 4.4------------
1987-08-04 14.9 19.1 11.2 6.8 82.0- 7.3 4.7---- 6.7------------
1987-08-03 13.5 18.3 9.0 5.6 78.8- 7.0 2.0---- 0.0------------
1987-08-02 14.3 17.6 12.8 11.3 82.5- 8.0 1.0---- 3.5------------
1987-08-01 14.9 20.6 11.3 11.4 77.0- 6.7 1.0---- 4.9------------
1987-07-31 17.8 22.5 11.5 6.8 62.0- 8.0 3.0---- 9.9------------
1987-07-30 15.6 20.6 9.1 5.0 66.3- 5.7 4.0---- 0.0------------
1987-07-29 13.2 17.5 9.7 8.1 73.5- 6.3 1.0---- 0.0------------
1987-07-28 12.8 15.1 11.3 8.0 74.5- 8.0 5.0---- 2.3------------
1987-07-27 12.8 16.7 8.4 8.4 68.3- 5.3 4.0---- 0.0------------
1987-07-26 15.3 20.1 11.4 9.6 93.0- 8.0 0.3---- 12.9------------
1987-07-25 19.5 23.2 16.1 12.8 89.8- 7.0 2.3---- 4.2------------
1987-07-24 22.0 27.6 17.0 12.2 78.0- 6.7 1.3---- 35.5------------
1987-07-23 21.4 27.9 16.2 13.4 77.5- 6.0 1.3---- 0.0------------
1987-07-22 21.6 27.3 16.5 10.8 78.5- 7.3 1.3---- 0.0------------
1987-07-21 21.7 29.3 14.9 11.4 73.0- 6.7 3.0---- 0.0------------
1987-07-20 24.0 30.9 17.9 13.3 69.3- 4.7 2.0---- 0.0------------
1987-07-19 24.3 30.2 17.0 12.4 69.3- 4.0 3.7---- 0.0------------
1987-07-18 24.2 28.2 18.7 14.3 66.5- 3.3 2.7---- 0.0------------
1987-07-17 20.6 27.9 12.8 10.1 74.8- 6.3 3.0---- 0.2------------
1987-07-16 19.0 26.2 11.1 7.3 71.0- 3.3 0.7---- 0.0------------
1987-07-15 16.1 22.2 8.6 4.8 70.3- 1.3 1.7---- 0.0------------
1987-07-14 17.4 21.3 14.0 12.7 64.8- 2.3 1.3---- 0.0------------
1987-07-13 19.1 23.1 14.9 12.7 80.5- 8.0 0.7---- 0.2------------
1987-07-12 20.9 24.7 13.7 9.3 55.5- 5.0 5.7---- 4.8------------
1987-07-11 15.9 22.7 6.9 4.2 67.3- 0.7 2.7---- 0.0------------
1987-07-10 15.7 19.2 12.2 11.1 70.8- 3.3 2.0---- 0.0------------
1987-07-09 20.7 26.0 15.9 10.0 70.3- 4.0 4.3---- 8.3------------
1987-07-08 20.5 25.5 10.0 5.3 57.3- 0.0 3.3---- 0.0------------
1987-07-07 16.7 24.7 7.7 3.6 64.0- 0.0 1.3---- 0.0------------
1987-07-06 15.6 20.2 9.0 4.9 75.8- 1.0 1.7---- 0.0------------
1987-07-05 15.2 19.3 11.6 7.7 87.0- 6.0 2.0---- 4.9------------
1987-07-04 18.0 22.2 15.5 14.8 66.8- 7.3 2.0---- 0.0------------
1987-07-03 18.4 21.2 16.2 14.9 79.3- 8.0 1.3---- 0.0------------
1987-07-02 19.9 25.6 16.5 12.6 91.3- 8.0 0.7---- 0.1------------
1987-07-01 22.0 28.7 16.1 11.5 73.8- 0.7 1.0---- 0.0------------
1987-06-30 21.2 27.8 12.7 9.3 79.3- 1.0 0.3---- 0.0------------
1987-06-29 18.9 23.9 13.6 10.9 78.8- 4.3 1.0---- 0.0------------
1987-06-28 19.3 24.5 14.3 11.0 79.3- 6.3 1.0---- 0.0------------
1987-06-27 17.8 19.7 12.5 8.2 71.8- 5.0 2.7---- 0.0------------
1987-06-26 15.2 21.4 7.1 4.6 73.0- 1.3 3.3---- 0.0------------
1987-06-25 14.4 16.9 11.5 7.9 86.0- 8.0 1.0---- 4.9------------
1987-06-24 14.8 18.2 11.6 8.1 85.3- 6.3 1.0---- 0.0------------
1987-06-23 14.5 19.0 11.8 9.5 87.0- 8.0 0.7---- 0.0------------
1987-06-22 15.0 22.4 9.3 6.4 87.0- 6.7 1.3---- 1.0------------
1987-06-21 14.7 22.5 8.3 4.2 79.3- 5.0 3.0---- 8.5------------
1987-06-20 14.3 21.7 6.0 1.5 69.5- 3.3 1.0---- 0.0------------
1987-06-19 10.7 15.9 5.8 3.3 84.8- 6.0 1.7---- 2.2------------
1987-06-18 9.9 16.6 5.3 2.4 82.5- 5.7 2.3---- 9.9------------
1987-06-17 10.4 12.5 8.5 8.4 89.0- 7.7 0.3---- 6.3------------
1987-06-16 17.5 26.1 10.7 10.5 70.5- 7.0 4.3---- 25.9------------
356.5 ms

 

Źródłem pochodzenia danych jest Instytut Meteorologii i Gospodarki Wodnej – Państwowy Instytut Badawczy. Dane Instytutu Meteorologii i Gospodarki Wodnej – Państwowego Instytutu Badawczego zostały przetworzone.

Dane źródłowe można odnaleźć na stronie https://dane.imgw.pl